Time;durP1;ratioP1;P1;durP2;ratioP2;P2;SDS_P1;SDS_P2;PMS_P1;PMS_P2;Temp;Humidity;BMP_temperature;BMP_pressure;BME280_temperature;BME280_humidity;BME280_pressure;Samples;Min_cycle;Max_cycle;Signal;HPM_P1;HPM_P2
2023/02/06 00:02:01;;;;;;;10.25;9.15;;;;;;;;;;5009387;28;20437;-83
2023/02/06 00:04:27;;;;;;;10.40;8.75;;;;;;;;;;5014556;28;20870;-83
2023/02/06 00:06:53;;;;;;;13.02;9.88;;;;;;;;;;5009435;28;20738;-82
2023/02/06 00:09:19;;;;;;;11.93;9.35;;;;;;;;;;5006980;28;20387;-82
2023/02/06 00:11:47;;;;;;;9.52;8.43;;;;;;;;;;5009925;28;20855;-83
2023/02/06 00:14:13;;;;;;;11.50;8.80;;;;;;;;;;5007164;28;20391;-83
2023/02/06 00:16:51;;;;;;;10.35;8.48;;;;;;;;;;5007603;28;20379;-82
2023/02/06 00:22:09;;;;;;;10.07;7.90;;;;;;;;;;5000635;28;20395;-83
2023/02/06 00:24:39;;;;;;;9.45;8.27;;;;;;;;;;5002637;28;20388;-83
2023/02/06 00:27:09;;;;;;;9.15;7.80;;;;;;;;;;4997293;28;20397;-84
2023/02/06 00:29:38;;;;;;;9.80;8.15;;;;;;;;;;5007254;28;20398;-84
2023/02/06 00:32:04;;;;;;;11.05;8.95;;;;;;;;;;5006320;28;20383;-84
2023/02/06 00:34:30;;;;;;;9.77;7.80;;;;;;;;;;5009495;28;20405;-83
2023/02/06 00:36:57;;;;;;;10.68;9.55;;;;;;;;;;5010348;28;20405;-83
2023/02/06 00:39:23;;;;;;;10.43;9.30;;;;;;;;;;5007346;28;20484;-84
2023/02/06 00:41:49;;;;;;;11.13;8.35;;;;;;;;;;5014782;28;20402;-83
2023/02/06 00:44:15;;;;;;;11.17;8.83;;;;;;;;;;5007987;28;20538;-84
2023/02/06 00:46:41;;;;;;;11.15;9.32;;;;;;;;;;5276424;22;20427;-82
2023/02/06 00:49:07;;;;;;;11.05;8.48;;;;;;;;;;5020217;28;20879;-82
2023/02/06 00:51:37;;;;;;;11.23;8.90;;;;;;;;;;4989103;28;20376;-81
2023/02/06 00:54:03;;;;;;;10.27;9.23;;;;;;;;;;4988952;28;20369;-81
2023/02/06 00:56:29;;;;;;;11.02;8.75;;;;;;;;;;4990334;28;20485;-82
2023/02/06 00:58:55;;;;;;;13.30;10.60;;;;;;;;;;4989806;28;20467;-83
2023/02/06 01:01:22;;;;;;;11.47;10.20;;;;;;;;;;4989686;28;20561;-83
2023/02/06 01:03:48;;;;;;;13.02;9.68;;;;;;;;;;5003743;28;20767;-83
2023/02/06 01:06:14;;;;;;;13.37;9.73;;;;;;;;;;4993096;28;20392;-82
2023/02/06 01:08:40;;;;;;;12.43;10.02;;;;;;;;;;4974798;28;20415;-83
2023/02/06 01:11:14;;;;;;;12.77;9.80;;;;;;;;;;4978095;28;20487;-84
2023/02/06 01:13:40;;;;;;;13.02;10.32;;;;;;;;;;4990430;28;20405;-84
2023/02/06 01:16:07;;;;;;;11.07;9.30;;;;;;;;;;4990445;28;20405;-83
2023/02/06 01:18:33;;;;;;;11.00;9.80;;;;;;;;;;4979401;28;20477;-83
2023/02/06 01:21:00;;;;;;;13.20;11.17;;;;;;;;;;4998193;28;20496;-83
2023/02/06 01:23:26;;;;;;;14.23;12.23;;;;;;;;;;4989580;28;20470;-83
2023/02/06 01:25:52;;;;;;;14.85;12.30;;;;;;;;;;4985360;28;20437;-83
2023/02/06 01:28:18;;;;;;;14.07;11.68;;;;;;;;;;4970906;28;21531;-82
2023/02/06 01:30:44;;;;;;;16.10;12.48;;;;;;;;;;5024944;28;20475;-82
2023/02/06 01:33:10;;;;;;;16.48;14.13;;;;;;;;;;5009117;28;20393;-82
2023/02/06 01:35:36;;;;;;;15.48;13.10;;;;;;;;;;4996731;28;20428;-82
2023/02/06 01:38:02;;;;;;;15.77;13.38;;;;;;;;;;5004292;28;20802;-82
2023/02/06 01:40:28;;;;;;;15.20;13.43;;;;;;;;;;5011011;28;20437;-83
2023/02/06 01:42:54;;;;;;;13.55;12.05;;;;;;;;;;4971032;28;20429;-81
2023/02/06 01:45:23;;;;;;;14.47;12.37;;;;;;;;;;4979156;28;20393;-81
2023/02/06 01:47:50;;;;;;;14.95;13.27;;;;;;;;;;5021579;28;20404;-81
2023/02/06 01:50:16;;;;;;;13.48;12.07;;;;;;;;;;4988065;28;20468;-82
2023/02/06 01:52:42;;;;;;;16.40;13.50;;;;;;;;;;4989613;28;20377;-82
2023/02/06 01:55:08;;;;;;;15.05;13.43;;;;;;;;;;5007569;28;20379;-82
2023/02/06 01:57:35;;;;;;;18.43;14.13;;;;;;;;;;5006873;28;20482;-83
2023/02/06 02:00:04;;;;;;;16.15;13.70;;;;;;;;;;5008920;28;20521;-82
2023/02/06 02:02:31;;;;;;;15.40;13.43;;;;;;;;;;5007645;28;20387;-82
2023/02/06 02:04:57;;;;;;;14.07;12.57;;;;;;;;;;4997968;28;20400;-83
2023/02/06 02:07:25;;;;;;;17.27;14.43;;;;;;;;;;4972611;28;20398;-82
2023/02/06 02:09:52;;;;;;;17.73;14.00;;;;;;;;;;4983426;28;20798;-83
2023/02/06 02:12:19;;;;;;;14.90;13.32;;;;;;;;;;5020634;28;20381;-82
2023/02/06 02:14:45;;;;;;;17.13;14.63;;;;;;;;;;4996054;28;20499;-83
2023/02/06 02:17:30;;;;;;;15.27;13.68;;;;;;;;;;4991872;28;20397;-83
2023/02/06 02:20:15;;;;;;;18.05;15.07;;;;;;;;;;4982036;28;20791;-82
2023/02/06 02:22:53;;;;;;;18.00;15.68;;;;;;;;;;5024623;28;20918;-84
2023/02/06 02:25:45;;;;;;;18.45;16.50;;;;;;;;;;4990584;28;20901;-82
2023/02/06 02:28:30;;;;;;;18.73;16.10;;;;;;;;;;5022756;28;20712;-83
2023/02/06 02:31:08;;;;;;;20.38;17.00;;;;;;;;;;4972101;28;20405;-82
2023/02/06 02:33:53;;;;;;;20.45;16.45;;;;;;;;;;4972534;28;20394;-83
2023/02/06 02:36:25;;;;;;;19.60;16.35;;;;;;;;;;5005928;28;20402;-81
2023/02/06 02:38:57;;;;;;;20.20;16.63;;;;;;;;;;4989802;28;20480;-82
2023/02/06 02:41:36;;;;;;;21.10;16.30;;;;;;;;;;4989815;28;20416;-82
2023/02/06 02:44:05;;;;;;;18.80;15.75;;;;;;;;;;4991690;28;20573;-82
2023/02/06 02:46:34;;;;;;;19.60;16.67;;;;;;;;;;4999037;28;20406;-83
2023/02/06 02:49:05;;;;;;;19.92;16.55;;;;;;;;;;4992259;28;20405;-83
2023/02/06 02:51:32;;;;;;;17.73;15.83;;;;;;;;;;4987024;28;20561;-83
2023/02/06 02:53:58;;;;;;;20.15;16.00;;;;;;;;;;5011647;28;20447;-83
2023/02/06 02:56:25;;;;;;;17.03;14.93;;;;;;;;;;5023762;28;20447;-82
2023/02/06 02:58:56;;;;;;;18.85;15.55;;;;;;;;;;4972492;28;20407;-82
2023/02/06 03:01:26;;;;;;;17.45;15.35;;;;;;;;;;4972903;28;20489;-82
2023/02/06 03:03:54;;;;;;;19.52;16.05;;;;;;;;;;5007887;28;20401;-82
2023/02/06 03:06:20;;;;;;;17.17;14.70;;;;;;;;;;5022698;28;20408;-82
2023/02/06 03:08:53;;;;;;;19.67;16.42;;;;;;;;;;4985684;28;20402;-83
2023/02/06 03:11:20;;;;;;;18.55;16.27;;;;;;;;;;4978161;28;20989;-82
2023/02/06 03:13:55;;;;;;;17.10;15.27;;;;;;;;;;5025448;28;20394;-83
2023/02/06 03:16:28;;;;;;;18.13;15.70;;;;;;;;;;5007237;28;20413;-83
2023/02/06 03:18:54;;;;;;;18.63;14.70;;;;;;;;;;4984168;28;20404;-83
2023/02/06 03:21:21;;;;;;;17.45;13.98;;;;;;;;;;5012247;28;20496;-84
2023/02/06 03:23:52;;;;;;;14.80;13.30;;;;;;;;;;5015816;28;20405;-82
2023/02/06 03:26:20;;;;;;;14.70;13.00;;;;;;;;;;4971819;28;20564;-83
2023/02/06 03:28:48;;;;;;;13.90;12.23;;;;;;;;;;5013816;28;20404;-83
2023/02/06 03:31:16;;;;;;;17.13;13.18;;;;;;;;;;4991234;28;20409;-82
2023/02/06 03:33:48;;;;;;;15.25;13.43;;;;;;;;;;5005749;28;20396;-81
2023/02/06 03:36:15;;;;;;;19.60;14.98;;;;;;;;;;5006867;28;20395;-81
2023/02/06 03:38:42;;;;;;;15.60;13.90;;;;;;;;;;5029807;28;20502;-81
2023/02/06 03:41:08;;;;;;;18.27;14.52;;;;;;;;;;4983809;28;20448;-82
2023/02/06 03:43:34;;;;;;;17.98;14.82;;;;;;;;;;4971775;28;20406;-82
2023/02/06 03:46:02;;;;;;;17.15;13.77;;;;;;;;;;5006964;28;20387;-81
2023/02/06 03:48:34;;;;;;;16.65;13.32;;;;;;;;;;5010725;28;20379;-80
2023/02/06 03:51:03;;;;;;;15.27;13.57;;;;;;;;;;5000287;28;20376;-81
2023/02/06 03:53:29;;;;;;;15.65;12.25;;;;;;;;;;5005992;28;20408;-83
2023/02/06 03:55:58;;;;;;;16.95;13.70;;;;;;;;;;5011784;28;20420;-83
2023/02/06 03:58:24;;;;;;;15.27;12.98;;;;;;;;;;5011070;28;20382;-82
2023/02/06 04:00:51;;;;;;;16.77;14.10;;;;;;;;;;5009732;28;20406;-82
2023/02/06 04:03:18;;;;;;;20.27;15.23;;;;;;;;;;5003400;28;20379;-81
2023/02/06 04:05:45;;;;;;;19.27;15.77;;;;;;;;;;5010835;28;20376;-80
2023/02/06 04:08:11;;;;;;;20.95;17.40;;;;;;;;;;5008270;28;20398;-83
2023/02/06 04:10:48;;;;;;;19.58;15.45;;;;;;;;;;4990560;28;20427;-82
2023/02/06 04:13:14;;;;;;;19.23;15.25;;;;;;;;;;5027123;28;20748;-82
2023/02/06 04:15:41;;;;;;;17.65;14.88;;;;;;;;;;4990411;28;20385;-82
2023/02/06 04:18:07;;;;;;;18.50;15.10;;;;;;;;;;4986093;28;20402;-82
2023/02/06 04:20:33;;;;;;;18.52;14.85;;;;;;;;;;4981424;28;20481;-82
2023/02/06 04:22:59;;;;;;;16.20;14.10;;;;;;;;;;5007141;28;20463;-82
2023/02/06 04:25:25;;;;;;;18.25;15.60;;;;;;;;;;4964377;28;20410;-82
2023/02/06 04:27:52;;;;;;;19.53;15.40;;;;;;;;;;4996104;28;20383;-82
2023/02/06 04:30:18;;;;;;;16.90;14.95;;;;;;;;;;5015043;28;20484;-81
2023/02/06 04:32:44;;;;;;;21.13;15.65;;;;;;;;;;4989373;28;20397;-82
2023/02/06 04:35:10;;;;;;;17.10;13.82;;;;;;;;;;5004501;28;20406;-82
2023/02/06 04:37:36;;;;;;;18.42;14.32;;;;;;;;;;4999937;28;20867;-81
2023/02/06 04:40:03;;;;;;;16.08;13.50;;;;;;;;;;4988315;28;20408;-82
2023/02/06 04:42:29;;;;;;;17.20;13.70;;;;;;;;;;5020370;28;20736;-81
2023/02/06 04:44:55;;;;;;;17.73;14.40;;;;;;;;;;5022488;28;20459;-81
2023/02/06 04:47:23;;;;;;;18.95;14.82;;;;;;;;;;4974273;28;20413;-83
2023/02/06 04:49:49;;;;;;;19.20;15.18;;;;;;;;;;5019443;28;20385;-81
2023/02/06 04:52:15;;;;;;;18.58;15.95;;;;;;;;;;4986551;28;20964;-81
2023/02/06 04:54:41;;;;;;;19.08;15.57;;;;;;;;;;4972387;28;20409;-81
2023/02/06 04:57:07;;;;;;;18.03;15.63;;;;;;;;;;4982962;28;20421;-81
2023/02/06 04:59:33;;;;;;;20.80;15.95;;;;;;;;;;5029316;28;20757;-82
2023/02/06 05:02:00;;;;;;;20.00;15.15;;;;;;;;;;5004798;28;20386;-81
2023/02/06 05:04:26;;;;;;;18.70;15.60;;;;;;;;;;4987553;28;20408;-81
2023/02/06 05:06:52;;;;;;;21.58;15.73;;;;;;;;;;5020750;28;20752;-81
2023/02/06 05:09:18;;;;;;;14.93;13.43;;;;;;;;;;5007446;28;20442;-81
2023/02/06 05:11:44;;;;;;;19.38;15.10;;;;;;;;;;5000550;28;20403;-81
2023/02/06 05:14:10;;;;;;;16.85;14.75;;;;;;;;;;4987741;28;20423;-81
2023/02/06 05:16:36;;;;;;;17.73;15.38;;;;;;;;;;4994807;28;20387;-81
2023/02/06 05:19:02;;;;;;;20.20;15.90;;;;;;;;;;4995966;28;20428;-80
2023/02/06 05:21:28;;;;;;;20.40;15.30;;;;;;;;;;4973706;28;20414;-81
2023/02/06 05:23:54;;;;;;;19.15;14.90;;;;;;;;;;4984869;28;20404;-82
2023/02/06 05:26:20;;;;;;;17.67;14.38;;;;;;;;;;4976925;28;20917;-81
2023/02/06 05:28:46;;;;;;;17.10;15.00;;;;;;;;;;4968242;28;20489;-82
2023/02/06 05:31:18;;;;;;;19.10;15.87;;;;;;;;;;4968112;28;20398;-82
2023/02/06 05:33:45;;;;;;;17.23;14.80;;;;;;;;;;4977651;28;20401;-81
2023/02/06 05:36:11;;;;;;;16.90;15.00;;;;;;;;;;4989152;28;20455;-81
2023/02/06 05:38:37;;;;;;;19.55;15.88;;;;;;;;;;4996721;28;20445;-81
2023/02/06 05:41:04;;;;;;;21.88;15.13;;;;;;;;;;4988633;28;20405;-81
2023/02/06 05:43:30;;;;;;;19.70;16.17;;;;;;;;;;5018364;28;20420;-81
2023/02/06 05:45:56;;;;;;;19.75;15.68;;;;;;;;;;4995672;28;20810;-81
2023/02/06 05:48:22;;;;;;;17.92;15.63;;;;;;;;;;4994328;28;20876;-81
2023/02/06 05:50:49;;;;;;;19.63;16.08;;;;;;;;;;4987793;28;20393;-81
2023/02/06 05:53:15;;;;;;;18.02;15.18;;;;;;;;;;4988501;28;20440;-81
2023/02/06 05:55:41;;;;;;;18.83;16.02;;;;;;;;;;4988739;28;20380;-81
2023/02/06 05:58:07;;;;;;;21.58;17.45;;;;;;;;;;4989057;28;20388;-81
2023/02/06 06:00:33;;;;;;;20.73;16.65;;;;;;;;;;4987328;28;20397;-81
2023/02/06 06:02:59;;;;;;;19.90;16.52;;;;;;;;;;4991572;28;20436;-82
2023/02/06 06:05:25;;;;;;;20.40;17.23;;;;;;;;;;4991133;28;20475;-81
2023/02/06 06:07:51;;;;;;;19.33;16.17;;;;;;;;;;4982496;28;20471;-82
2023/02/06 06:10:18;;;;;;;19.65;16.45;;;;;;;;;;5003893;28;20373;-84
2023/02/06 06:12:44;;;;;;;21.58;17.33;;;;;;;;;;4988108;28;20385;-82
2023/02/06 06:15:13;;;;;;;19.88;17.73;;;;;;;;;;5019828;28;20381;-84
2023/02/06 06:17:40;;;;;;;22.67;19.33;;;;;;;;;;4990789;28;20400;-83
2023/02/06 06:20:07;;;;;;;22.77;19.70;;;;;;;;;;4985299;28;20457;-83
2023/02/06 06:22:33;;;;;;;26.08;21.60;;;;;;;;;;4988544;28;20380;-83
2023/02/06 06:24:59;;;;;;;20.77;18.13;;;;;;;;;;4981766;28;20502;-84
2023/02/06 06:27:25;;;;;;;24.73;20.23;;;;;;;;;;5017726;28;20403;-82
2023/02/06 06:29:51;;;;;;;24.73;20.23;;;;;;;;;;5016091;28;20413;-82
2023/02/06 06:32:21;;;;;;;22.02;18.85;;;;;;;;;;4983678;28;20751;-82
2023/02/06 06:34:47;;;;;;;171.00;131.97;;;;;;;;;;4991822;28;20572;-82
2023/02/06 06:37:13;;;;;;;28.08;22.42;;;;;;;;;;5020484;28;20381;-83
2023/02/06 06:39:39;;;;;;;25.02;20.40;;;;;;;;;;4989119;28;20416;-82
2023/02/06 06:42:07;;;;;;;27.98;21.80;;;;;;;;;;4988317;28;20381;-82
2023/02/06 06:44:33;;;;;;;27.98;22.38;;;;;;;;;;4987968;28;20389;-83
2023/02/06 06:46:59;;;;;;;24.67;20.53;;;;;;;;;;5017905;28;20393;-83
2023/02/06 06:49:25;;;;;;;30.70;23.40;;;;;;;;;;5019685;28;20389;-83
2023/02/06 06:51:51;;;;;;;28.65;23.85;;;;;;;;;;4989015;28;20400;-82
2023/02/06 06:54:18;;;;;;;24.95;21.52;;;;;;;;;;4990476;28;20375;-83
2023/02/06 06:56:44;;;;;;;30.70;24.03;;;;;;;;;;5019934;28;20824;-83
2023/02/06 06:59:10;;;;;;;24.17;20.38;;;;;;;;;;4988755;28;20381;-83
2023/02/06 07:01:36;;;;;;;24.38;21.02;;;;;;;;;;4992396;28;20531;-83
2023/02/06 07:04:02;;;;;;;26.58;21.08;;;;;;;;;;4992744;28;20377;-82
2023/02/06 07:06:29;;;;;;;24.38;20.92;;;;;;;;;;5023729;28;20800;-83
2023/02/06 07:08:55;;;;;;;26.50;21.83;;;;;;;;;;4991999;28;20451;-83
2023/02/06 07:11:21;;;;;;;28.27;22.83;;;;;;;;;;4992058;28;20381;-83
2023/02/06 07:13:47;;;;;;;27.23;20.98;;;;;;;;;;4991958;28;20388;-84
2023/02/06 07:16:13;;;;;;;28.70;22.38;;;;;;;;;;4991739;28;20388;-82
2023/02/06 07:18:41;;;;;;;26.77;21.33;;;;;;;;;;4992011;28;20452;-82
2023/02/06 07:27:32;;;;;;;27.00;23.30;;;;;;;;;;4990411;28;20375;-82
2023/02/06 07:29:58;;;;;;;30.55;23.67;;;;;;;;;;4993594;28;20856;-82
2023/02/06 07:32:25;;;;;;;30.58;24.73;;;;;;;;;;5023450;28;20404;-82
2023/02/06 07:34:51;;;;;;;28.60;23.92;;;;;;;;;;5025623;28;20399;-80
2023/02/06 07:37:34;;;;;;;27.45;22.88;;;;;;;;;;5022697;28;20424;-82
2023/02/06 07:40:01;;;;;;;29.15;23.73;;;;;;;;;;5024026;28;20463;-82
2023/02/06 07:42:27;;;;;;;35.05;25.38;;;;;;;;;;5021879;28;20380;-82
2023/02/06 07:44:53;;;;;;;26.40;23.50;;;;;;;;;;4993719;28;20520;-82
2023/02/06 07:47:27;;;;;;;27.00;22.37;;;;;;;;;;4990884;28;20401;-83
2023/02/06 07:50:09;;;;;;;28.00;23.75;;;;;;;;;;5015874;28;20393;-81
2023/02/06 07:52:35;;;;;;;26.00;22.75;;;;;;;;;;4983414;28;20443;-78
2023/02/06 07:55:01;;;;;;;30.98;24.95;;;;;;;;;;4992666;28;20396;-78
2023/02/06 07:57:27;;;;;;;30.17;25.42;;;;;;;;;;4993964;28;20377;-77
2023/02/06 07:59:55;;;;;;;35.28;26.80;;;;;;;;;;4992077;28;20523;-83
2023/02/06 08:36:38;;;;;;;;;;;;;;;;;;;;;
2023/02/06 09:27:00;;;;;;;;;;;;;;;;;;;;;
2023/02/06 09:32:41;;;;;;;28.83;22.75;;;;;;;;;;5019421;28;20408;-81
2023/02/06 09:35:15;;;;;;;33.78;23.40;;;;;;;;;;5028885;28;21054;-81
2023/02/06 09:37:41;;;;;;;32.00;24.27;;;;;;;;;;5010302;28;20853;-82
2023/02/06 09:40:11;;;;;;;33.70;25.27;;;;;;;;;;5010432;28;20494;-81
2023/02/06 09:42:41;;;;;;;30.00;23.23;;;;;;;;;;5010560;28;20468;-81
2023/02/06 09:51:45;;;;;;;30.70;23.88;;;;;;;;;;4887313;29;20379;-81
2023/02/06 09:54:16;;;;;;;29.05;23.20;;;;;;;;;;4956258;28;20518;-82
2023/02/06 09:57:20;;;;;;;29.40;22.83;;;;;;;;;;5020291;28;20440;-82
2023/02/06 10:03:14;;;;;;;25.17;20.40;;;;;;;;;;5008021;28;20462;-81
2023/02/06 10:14:55;;;;;;;20.80;17.65;;;;;;;;;;5029251;28;20468;-85
2023/02/06 10:17:26;;;;;;;21.27;16.55;;;;;;;;;;5012233;28;20377;-85
2023/02/06 10:20:09;;;;;;;22.13;16.23;;;;;;;;;;5013088;28;20716;-83
2023/02/06 10:22:38;;;;;;;20.05;16.02;;;;;;;;;;5046061;28;20425;-84
2023/02/06 10:25:13;;;;;;;21.87;16.90;;;;;;;;;;5031930;28;20480;-83
2023/02/06 10:27:42;;;;;;;19.98;16.13;;;;;;;;;;5048517;28;20380;-82
2023/02/06 10:30:18;;;;;;;20.42;16.48;;;;;;;;;;5031238;28;20387;-83
2023/02/06 10:32:53;;;;;;;20.58;16.55;;;;;;;;;;5049668;28;20850;-83
2023/02/06 10:35:28;;;;;;;22.42;16.98;;;;;;;;;;5051548;28;20975;-82
2023/02/06 10:37:54;;;;;;;23.25;17.55;;;;;;;;;;5056421;28;20368;-83
2023/02/06 10:40:23;;;;;;;21.77;17.23;;;;;;;;;;5065583;28;20397;-83
2023/02/06 10:43:01;;;;;;;18.80;14.90;;;;;;;;;;5035812;28;20370;-84
2023/02/06 10:45:35;;;;;;;20.50;15.23;;;;;;;;;;5036233;28;20372;-85
2023/02/06 10:48:11;;;;;;;19.23;15.60;;;;;;;;;;5035398;28;20849;-83
2023/02/06 10:50:44;;;;;;;21.30;16.30;;;;;;;;;;5024104;28;20389;-85
2023/02/06 10:53:40;;;;;;;16.05;14.35;;;;;;;;;;5029282;28;20394;-83
2023/02/06 10:56:11;;;;;;;17.92;14.88;;;;;;;;;;5029040;28;20401;-85
2023/02/06 10:58:45;;;;;;;17.30;14.23;;;;;;;;;;5033467;28;20380;-83
2023/02/06 11:01:13;;;;;;;20.33;15.30;;;;;;;;;;5032740;28;20397;-83
2023/02/06 11:03:49;;;;;;;20.50;15.38;;;;;;;;;;5036742;28;20396;-83
2023/02/06 11:06:19;;;;;;;19.00;14.93;;;;;;;;;;5035724;28;20368;-83
2023/02/06 11:08:45;;;;;;;19.63;15.65;;;;;;;;;;5035746;28;20378;-85
2023/02/06 11:11:25;;;;;;;17.90;14.00;;;;;;;;;;5067635;28;20374;-83
2023/02/06 11:13:58;;;;;;;19.00;14.27;;;;;;;;;;5053159;28;20741;-85
2023/02/06 11:16:35;;;;;;;16.50;14.13;;;;;;;;;;5034595;28;20462;-84
2023/02/06 11:28:48;;;;;;;;;;;;;;;;;;;;;
2023/02/06 11:31:19;;;;;;;18.88;15.18;;;;;;;;;;5050738;28;20375;-85
2023/02/06 11:33:45;;;;;;;19.75;16.10;;;;;;;;;;5055257;28;20410;-84
2023/02/06 11:36:21;;;;;;;20.80;16.30;;;;;;;;;;5055156;28;20363;-84
2023/02/06 11:39:04;;;;;;;22.73;18.85;;;;;;;;;;5036494;28;20400;-83
2023/02/06 11:41:30;;;;;;;24.85;20.10;;;;;;;;;;5054767;28;20447;-83
2023/02/06 11:44:01;;;;;;;24.88;19.13;;;;;;;;;;5054536;28;20430;-84
2023/02/06 11:46:34;;;;;;;25.20;18.83;;;;;;;;;;5054335;28;20370;-84
2023/02/06 11:49:03;;;;;;;24.30;19.67;;;;;;;;;;5054224;28;20387;-84
2023/02/06 11:51:52;;;;;;;24.42;18.50;;;;;;;;;;5038488;28;20387;-84
2023/02/06 11:54:28;;;;;;;22.03;17.57;;;;;;;;;;5036391;28;20372;-84
2023/02/06 11:57:02;;;;;;;21.80;17.50;;;;;;;;;;5038876;28;20371;-84
2023/02/06 11:59:33;;;;;;;19.63;16.85;;;;;;;;;;5038739;28;20376;-84
2023/02/06 12:02:00;;;;;;;20.88;17.25;;;;;;;;;;5037630;28;20388;-84
2023/02/06 12:04:32;;;;;;;21.00;16.73;;;;;;;;;;5057201;28;20371;-84
2023/02/06 12:07:01;;;;;;;22.10;17.25;;;;;;;;;;5056265;28;20364;-83
2023/02/06 12:09:27;;;;;;;20.38;16.70;;;;;;;;;;5056692;28;20459;-84
2023/02/06 12:11:57;;;;;;;19.98;16.90;;;;;;;;;;5058498;28;20374;-85
2023/02/06 12:14:29;;;;;;;20.70;17.65;;;;;;;;;;5058651;28;20369;-83
2023/02/06 12:16:56;;;;;;;20.85;16.27;;;;;;;;;;5057357;28;20363;-82
2023/02/06 12:19:30;;;;;;;18.75;16.33;;;;;;;;;;5057164;28;20375;-83
2023/02/06 12:22:23;;;;;;;19.55;16.30;;;;;;;;;;5056662;28;20371;-82
2023/02/06 12:24:51;;;;;;;20.60;16.58;;;;;;;;;;5038011;28;20501;-84
2023/02/06 12:27:19;;;;;;;20.00;16.60;;;;;;;;;;5038459;28;20854;-85
2023/02/06 12:29:55;;;;;;;19.00;15.93;;;;;;;;;;5031230;28;20451;-84
2023/02/06 12:32:29;;;;;;;19.48;16.50;;;;;;;;;;5055781;28;20396;-82
2023/02/06 12:34:59;;;;;;;19.38;16.42;;;;;;;;;;5057636;28;20368;-82
2023/02/06 12:37:30;;;;;;;18.05;16.00;;;;;;;;;;5056599;28;20372;-82
2023/02/06 12:39:56;;;;;;;19.63;15.57;;;;;;;;;;5037175;28;20783;-85
2023/02/06 12:42:39;;;;;;;19.58;15.50;;;;;;;;;;5057125;28;20368;-82
2023/02/06 12:45:37;;;;;;;15.75;14.05;;;;;;;;;;5056475;28;20810;-82
2023/02/06 12:48:06;;;;;;;18.25;15.07;;;;;;;;;;5036329;28;20383;-83
2023/02/06 12:50:34;;;;;;;19.25;15.55;;;;;;;;;;5058610;28;20849;-82
2023/02/06 12:53:03;;;;;;;19.38;16.00;;;;;;;;;;5058635;28;20379;-83
2023/02/06 12:55:31;;;;;;;17.27;15.07;;;;;;;;;;5056858;28;20371;-83
2023/02/06 12:57:57;;;;;;;18.40;15.50;;;;;;;;;;5055708;28;20455;-81
2023/02/06 13:00:36;;;;;;;19.00;16.10;;;;;;;;;;5060055;28;20392;-84
2023/02/06 13:03:18;;;;;;;19.47;16.77;;;;;;;;;;5075529;28;20368;-84
2023/02/06 13:05:46;;;;;;;18.95;16.17;;;;;;;;;;5033138;28;20393;-84
2023/02/06 13:08:19;;;;;;;18.88;16.88;;;;;;;;;;5038703;28;20403;-84
2023/02/06 13:10:47;;;;;;;19.30;16.55;;;;;;;;;;5021398;28;20392;-85
2023/02/06 13:13:43;;;;;;;22.48;17.83;;;;;;;;;;5021809;28;20384;-84
2023/02/06 13:16:09;;;;;;;21.58;18.00;;;;;;;;;;5021208;28;20645;-84
2023/02/06 13:18:43;;;;;;;21.33;17.63;;;;;;;;;;5023139;28;20386;-85
2023/02/06 13:21:22;;;;;;;22.35;18.67;;;;;;;;;;5022259;28;20413;-85
2023/02/06 13:24:05;;;;;;;22.33;18.70;;;;;;;;;;5054086;28;20480;-84
2023/02/06 13:26:50;;;;;;;22.38;18.98;;;;;;;;;;5032783;28;20375;-85
2023/02/06 13:29:40;;;;;;;21.17;17.70;;;;;;;;;;5029357;28;20378;-84
2023/02/06 13:32:17;;;;;;;20.30;17.00;;;;;;;;;;5051779;28;20369;-85
2023/02/06 13:34:43;;;;;;;21.27;17.00;;;;;;;;;;5060232;28;20884;-86
2023/02/06 13:37:29;;;;;;;18.98;16.40;;;;;;;;;;5033078;28;20437;-86
2023/02/06 13:40:13;;;;;;;19.02;15.85;;;;;;;;;;5054516;28;20743;-85
2023/02/06 13:42:52;;;;;;;17.48;14.90;;;;;;;;;;5054697;28;20894;-85
2023/02/06 13:45:30;;;;;;;19.70;16.73;;;;;;;;;;5021606;28;20372;-85
2023/02/06 13:48:16;;;;;;;19.23;15.55;;;;;;;;;;5032621;28;20382;-85
2023/02/06 13:50:52;;;;;;;16.52;14.73;;;;;;;;;;5053064;28;20393;-85
2023/02/06 13:53:31;;;;;;;15.80;14.15;;;;;;;;;;5020037;28;20640;-85
2023/02/06 13:56:16;;;;;;;16.27;14.50;;;;;;;;;;5037381;28;20389;-85
2023/02/06 13:58:50;;;;;;;18.25;15.23;;;;;;;;;;5020595;28;20393;-85
2023/02/06 14:01:28;;;;;;;15.80;14.10;;;;;;;;;;5038447;28;20401;-85
2023/02/06 14:03:55;;;;;;;16.52;14.70;;;;;;;;;;5054538;28;20365;-85
2023/02/06 14:06:47;;;;;;;17.70;15.13;;;;;;;;;;5020623;28;20412;-86
2023/02/06 14:09:17;;;;;;;17.15;14.43;;;;;;;;;;5036180;28;20413;-86
2023/02/06 14:14:47;;;;;;;16.73;14.45;;;;;;;;;;5041940;28;20349;-85
2023/02/06 14:17:28;;;;;;;16.55;14.38;;;;;;;;;;5021033;28;20425;-85
2023/02/06 14:20:02;;;;;;;16.60;14.75;;;;;;;;;;5056362;28;20441;-86
2023/02/06 14:22:39;;;;;;;15.57;13.88;;;;;;;;;;5043385;28;20373;-86
2023/02/06 14:25:16;;;;;;;17.85;14.55;;;;;;;;;;5023643;28;20385;-85
2023/02/06 14:28:08;;;;;;;16.17;13.95;;;;;;;;;;5024595;28;20382;-84
2023/02/06 14:30:54;;;;;;;16.08;13.40;;;;;;;;;;5023229;28;20395;-85
2023/02/06 14:33:39;;;;;;;17.48;15.13;;;;;;;;;;5032407;28;20377;-84
2023/02/06 14:36:16;;;;;;;18.90;16.20;;;;;;;;;;5023440;28;20404;-84
2023/02/06 14:39:07;;;;;;;20.05;17.45;;;;;;;;;;5055019;28;20723;-85
2023/02/06 14:41:38;;;;;;;24.23;20.55;;;;;;;;;;4997845;28;20419;-83
2023/02/06 14:44:08;;;;;;;25.25;20.63;;;;;;;;;;5025676;28;20496;-84
2023/02/06 14:46:41;;;;;;;23.90;20.23;;;;;;;;;;5024287;28;20405;-84
2023/02/06 14:49:13;;;;;;;26.02;21.65;;;;;;;;;;5023630;28;20392;-84
2023/02/06 14:51:40;;;;;;;25.92;21.48;;;;;;;;;;5041600;28;20367;-84
2023/02/06 14:54:26;;;;;;;27.80;22.77;;;;;;;;;;5024776;28;20369;-84
2023/02/06 14:57:04;;;;;;;27.90;23.15;;;;;;;;;;5054567;28;20485;-84
2023/02/06 14:59:34;;;;;;;28.10;23.35;;;;;;;;;;5064532;28;20457;-84
2023/02/06 15:02:03;;;;;;;26.50;22.77;;;;;;;;;;5055084;28;20394;-84
2023/02/06 15:04:30;;;;;;;24.77;22.08;;;;;;;;;;5059537;28;20405;-85
2023/02/06 15:06:57;;;;;;;25.67;21.30;;;;;;;;;;5023798;28;20382;-83
2023/02/06 15:09:25;;;;;;;25.20;21.25;;;;;;;;;;5023730;28;20389;-83
2023/02/06 15:11:55;;;;;;;24.15;21.55;;;;;;;;;;5025180;28;20377;-85
2023/02/06 15:14:26;;;;;;;24.47;21.03;;;;;;;;;;5041843;28;20728;-84
2023/02/06 15:16:58;;;;;;;25.00;20.73;;;;;;;;;;5038129;28;20385;-84
2023/02/06 15:19:26;;;;;;;24.60;21.08;;;;;;;;;;5024801;28;20951;-83
2023/02/06 15:22:04;;;;;;;23.25;19.00;;;;;;;;;;5022774;28;20456;-85
2023/02/06 15:24:45;;;;;;;22.15;18.65;;;;;;;;;;5020777;28;20498;-84
2023/02/06 15:27:11;;;;;;;23.35;19.08;;;;;;;;;;5023525;28;20396;-84
2023/02/06 15:29:37;;;;;;;24.35;19.85;;;;;;;;;;5023459;28;20484;-84
2023/02/06 15:32:05;;;;;;;21.83;17.73;;;;;;;;;;5040966;28;20378;-84
2023/02/06 15:34:31;;;;;;;21.05;18.10;;;;;;;;;;5039019;28;20471;-84
2023/02/06 15:36:58;;;;;;;21.38;18.20;;;;;;;;;;5023051;28;20374;-83
2023/02/06 15:39:24;;;;;;;20.02;16.88;;;;;;;;;;5045743;28;20375;-84
2023/02/06 15:41:51;;;;;;;19.77;16.65;;;;;;;;;;5040616;28;20440;-84
2023/02/06 15:44:35;;;;;;;19.95;17.13;;;;;;;;;;5039227;28;20397;-84
2023/02/06 15:47:12;;;;;;;20.40;17.75;;;;;;;;;;5039528;28;20369;-85
2023/02/06 15:49:43;;;;;;;27.77;22.55;;;;;;;;;;5053349;28;20914;-85
2023/02/06 15:52:12;;;;;;;18.88;16.50;;;;;;;;;;5043534;28;20449;-84
2023/02/06 15:54:41;;;;;;;17.20;15.00;;;;;;;;;;5040300;28;20806;-83
2023/02/06 15:57:27;;;;;;;17.83;15.17;;;;;;;;;;5039900;28;20393;-85
2023/02/06 15:59:55;;;;;;;16.95;14.23;;;;;;;;;;5052761;28;20393;-84
2023/02/06 16:02:33;;;;;;;17.90;13.93;;;;;;;;;;5020182;28;20394;-84
2023/02/06 16:05:00;;;;;;;15.65;13.20;;;;;;;;;;5053222;28;20519;-83
2023/02/06 16:07:30;;;;;;;15.55;13.55;;;;;;;;;;5039385;28;20366;-83
2023/02/06 16:10:06;;;;;;;;;;;;;;;;;;;;;
2023/02/06 16:12:39;;;;;;;18.38;14.73;;;;;;;;;;5035899;28;20449;-83
2023/02/06 16:15:25;;;;;;;17.20;14.52;;;;;;;;;;5019420;28;20382;-84
2023/02/06 16:17:51;;;;;;;18.88;15.63;;;;;;;;;;5033874;28;20358;-84
2023/02/06 16:20:32;;;;;;;20.92;16.08;;;;;;;;;;5014664;28;20495;-83
2023/02/06 16:23:27;;;;;;;19.58;16.30;;;;;;;;;;5046797;28;20389;-83
2023/02/06 16:26:06;;;;;;;19.95;17.15;;;;;;;;;;5048274;28;20366;-82
2023/02/06 16:28:43;;;;;;;21.00;17.63;;;;;;;;;;5031949;28;20393;-84
2023/02/06 16:31:34;;;;;;;23.38;19.08;;;;;;;;;;5031307;28;20377;-82
2023/02/06 16:34:22;;;;;;;24.52;19.70;;;;;;;;;;5044315;28;20369;-84
2023/02/06 16:37:11;;;;;;;23.38;19.70;;;;;;;;;;5051213;28;20397;-84
2023/02/06 16:40:13;;;;;;;;;;;;;;;;;;;;;
2023/02/06 16:43:12;;;;;;;25.10;21.38;;;;;;;;;;5030358;28;20447;-82
2023/02/06 16:45:40;;;;;;;25.83;20.73;;;;;;;;;;5029354;28;20439;-83
2023/02/06 16:51:14;;;;;;;25.75;21.05;;;;;;;;;;5011187;28;20473;-82
2023/02/06 16:53:47;;;;;;;27.13;22.08;;;;;;;;;;5031120;28;20397;-82
2023/02/06 16:56:13;;;;;;;26.02;22.23;;;;;;;;;;5010294;28;20377;-82